Time;durP1;ratioP1;P1;durP2;ratioP2;P2;SDS_P1;SDS_P2;PMS_P1;PMS_P2;Temp;Humidity;BMP_temperature;BMP_pressure;BME280_temperature;BME280_humidity;BME280_pressure;Samples;Min_cycle;Max_cycle;Signal;HPM_P1;HPM_P2
2023/07/31 00:00:08;;;;;;;5.63;3.20;;;15.70;99.90;;;;;;5039983;28;20037;-68
2023/07/31 00:02:34;;;;;;;5.32;2.83;;;15.70;99.90;;;;;;5026370;28;20071;-68
2023/07/31 00:05:01;;;;;;;5.13;2.65;;;15.70;99.90;;;;;;5043322;28;20041;-68
2023/07/31 00:07:27;;;;;;;5.13;2.97;;;15.70;99.90;;;;;;5041148;28;20556;-68
2023/07/31 00:09:53;;;;;;;5.32;2.90;;;15.60;99.90;;;;;;5041401;28;20131;-68
2023/07/31 00:12:19;;;;;;;4.70;2.55;;;15.60;99.90;;;;;;5050833;28;20040;-66
2023/07/31 00:14:45;;;;;;;4.70;2.63;;;15.60;99.90;;;;;;5044708;28;20090;-72
2023/07/31 00:17:11;;;;;;;5.38;3.00;;;15.60;99.90;;;;;;5046539;28;20108;-66
2023/07/31 00:19:37;;;;;;;6.90;3.30;;;15.60;99.90;;;;;;5047353;28;20781;-66
2023/07/31 00:22:03;;;;;;;5.25;2.88;;;15.60;99.90;;;;;;5053096;28;20037;-66
2023/07/31 00:24:28;;;;;;;6.70;3.03;;;15.50;99.90;;;;;;5052090;28;20411;-67
2023/07/31 00:26:54;;;;;;;5.35;2.70;;;15.50;99.90;;;;;;5064321;28;20048;-66
2023/07/31 00:29:20;;;;;;;6.63;3.33;;;15.50;99.90;;;;;;5045018;28;20033;-66
2023/07/31 00:31:45;;;;;;;5.57;3.00;;;15.50;99.90;;;;;;5044909;28;20037;-66
2023/07/31 00:34:11;;;;;;;4.18;2.72;;;15.50;99.90;;;;;;5046625;28;20047;-66
2023/07/31 00:36:36;;;;;;;5.57;2.75;;;15.50;99.90;;;;;;5036091;28;20076;-68
2023/07/31 00:39:02;;;;;;;5.68;2.95;;;15.50;99.90;;;;;;5049141;28;20632;-66
2023/07/31 00:41:28;;;;;;;4.28;2.75;;;15.50;99.90;;;;;;5047226;28;20037;-66
2023/07/31 00:43:53;;;;;;;6.25;2.83;;;15.50;99.90;;;;;;5051948;28;20040;-67
2023/07/31 00:46:20;;;;;;;4.13;2.92;;;15.40;99.90;;;;;;5052849;28;20041;-69
2023/07/31 00:48:45;;;;;;;5.40;3.10;;;15.40;99.90;;;;;;5049600;28;20092;-71
2023/07/31 00:51:11;;;;;;;3.67;2.35;;;15.40;99.90;;;;;;5041828;28;20570;-67
2023/07/31 00:53:37;;;;;;;4.18;2.40;;;15.40;99.90;;;;;;5035267;28;20049;-71
2023/07/31 00:56:03;;;;;;;4.95;2.65;;;15.40;99.90;;;;;;5043425;28;20032;-72
2023/07/31 00:58:29;;;;;;;3.50;2.55;;;15.40;99.90;;;;;;5041023;28;20101;-68
2023/07/31 01:00:55;;;;;;;4.68;2.58;;;15.40;99.90;;;;;;5043248;28;20114;-68
2023/07/31 01:03:21;;;;;;;5.00;2.58;;;15.30;99.90;;;;;;5044300;28;20064;-66
2023/07/31 01:05:56;;;;;;;3.45;2.38;;;15.30;99.90;;;;;;5044644;28;20043;-67
2023/07/31 01:09:02;;;;;;;3.67;2.55;;;15.30;99.90;;;;;;5046058;28;20120;-66
2023/07/31 01:11:30;;;;;;;4.65;2.58;;;15.30;99.90;;;;;;5029171;28;20179;-69
2023/07/31 01:13:57;;;;;;;4.55;2.47;;;15.30;99.90;;;;;;5051239;28;20072;-67
2023/07/31 01:16:22;;;;;;;3.03;2.17;;;15.30;99.90;;;;;;5042381;28;20045;-71
2023/07/31 01:18:48;;;;;;;4.03;2.50;;;15.30;99.90;;;;;;5041239;28;20040;-69
2023/07/31 01:21:35;;;;;;;2.97;2.20;;;15.30;99.90;;;;;;5043481;28;20040;-66
2023/07/31 01:24:42;;;;;;;3.15;2.10;;;15.30;99.90;;;;;;5041398;28;20049;-70
2023/07/31 01:27:17;;;;;;;3.30;1.90;;;15.30;99.90;;;;;;5040686;28;20072;-66
2023/07/31 01:29:55;;;;;;;3.10;2.03;;;15.30;99.90;;;;;;5035644;28;20041;-66
2023/07/31 01:32:22;;;;;;;2.92;2.05;;;15.30;99.90;;;;;;5041046;28;20048;-67
2023/07/31 01:34:49;;;;;;;4.22;2.03;;;15.30;99.90;;;;;;5044934;28;20051;-66
2023/07/31 01:37:14;;;;;;;2.88;1.92;;;15.30;99.90;;;;;;5051948;28;20025;-68
2023/07/31 01:39:40;;;;;;;2.28;1.80;;;15.30;99.90;;;;;;5048686;28;20045;-68
2023/07/31 01:42:07;;;;;;;5.57;2.03;;;15.30;99.90;;;;;;5050707;28;20044;-68
2023/07/31 01:44:33;;;;;;;3.53;1.88;;;15.30;99.90;;;;;;5044464;28;21115;-68
2023/07/31 01:47:00;;;;;;;3.28;1.75;;;15.30;99.90;;;;;;5042096;28;20094;-67
2023/07/31 01:49:25;;;;;;;2.58;1.58;;;15.40;99.90;;;;;;5040188;28;20075;-67
2023/07/31 01:51:51;;;;;;;2.47;1.60;;;15.40;99.90;;;;;;5046285;28;20111;-67
2023/07/31 01:54:16;;;;;;;2.75;1.60;;;15.40;99.90;;;;;;5043177;28;20033;-67
2023/07/31 01:56:42;;;;;;;3.10;2.00;;;15.40;99.90;;;;;;5040089;28;20033;-67
2023/07/31 01:59:08;;;;;;;2.95;2.00;;;15.40;99.90;;;;;;5041887;28;20502;-67
2023/07/31 02:01:33;;;;;;;3.63;2.28;;;15.40;99.90;;;;;;5037697;28;20045;-68
2023/07/31 02:03:59;;;;;;;3.35;2.05;;;15.40;99.90;;;;;;5042167;28;20032;-67
2023/07/31 02:06:25;;;;;;;2.88;1.80;;;15.40;99.90;;;;;;5038673;28;20483;-67
2023/07/31 02:08:50;;;;;;;4.07;2.03;;;15.40;99.90;;;;;;5041979;28;20116;-68
2023/07/31 02:11:16;;;;;;;2.17;1.80;;;15.40;99.90;;;;;;5041499;28;20095;-67
2023/07/31 02:13:41;;;;;;;2.55;1.80;;;15.40;99.90;;;;;;5036525;28;20057;-68
2023/07/31 02:16:07;;;;;;;2.47;1.65;;;15.40;99.90;;;;;;5041857;28;20045;-66
2023/07/31 02:18:33;;;;;;;2.15;1.60;;;15.40;99.90;;;;;;5041756;28;20040;-66
2023/07/31 02:20:58;;;;;;;3.67;1.73;;;15.50;99.90;;;;;;5040871;28;20554;-72
2023/07/31 02:23:24;;;;;;;3.30;1.88;;;15.50;99.90;;;;;;5041797;28;20040;-71
2023/07/31 02:25:49;;;;;;;2.42;1.90;;;15.50;99.90;;;;;;5042422;28;20087;-67
2023/07/31 02:28:15;;;;;;;3.50;2.20;;;15.50;99.90;;;;;;5040677;28;20053;-66
2023/07/31 02:30:44;;;;;;;3.35;2.15;;;15.50;99.90;;;;;;5037546;28;20124;-66
2023/07/31 02:33:10;;;;;;;4.32;2.10;;;15.60;99.90;;;;;;5041772;28;20048;-65
2023/07/31 02:35:35;;;;;;;3.33;2.30;;;15.60;99.90;;;;;;5040660;28;20037;-69
2023/07/31 02:38:01;;;;;;;3.20;2.15;;;15.60;99.90;;;;;;5038710;28;20033;-68
2023/07/31 02:40:26;;;;;;;3.45;2.10;;;15.60;99.90;;;;;;5047275;28;20049;-68
2023/07/31 02:42:52;;;;;;;3.17;2.10;;;15.60;99.90;;;;;;5042239;28;20051;-68
2023/07/31 02:45:18;;;;;;;3.47;2.40;;;15.60;99.90;;;;;;5043120;28;20517;-68
2023/07/31 02:47:43;;;;;;;3.50;2.50;;;15.60;99.90;;;;;;5038540;28;20033;-68
2023/07/31 02:50:09;;;;;;;3.45;2.17;;;15.70;99.90;;;;;;5041600;28;20509;-68
2023/07/31 02:52:35;;;;;;;3.10;2.17;;;15.70;99.90;;;;;;5043003;28;20080;-68
2023/07/31 02:55:01;;;;;;;3.58;2.33;;;15.70;99.90;;;;;;5038875;28;20422;-68
2023/07/31 02:57:26;;;;;;;5.65;2.30;;;15.70;99.90;;;;;;5040583;28;20048;-68
2023/07/31 02:59:52;;;;;;;4.10;2.25;;;15.70;99.90;;;;;;5042140;28;20044;-68
2023/07/31 03:02:17;;;;;;;3.08;2.15;;;15.80;99.90;;;;;;5042581;28;20037;-68
2023/07/31 03:04:43;;;;;;;3.75;2.45;;;15.70;99.90;;;;;;5033962;28;20909;-68
2023/07/31 03:07:09;;;;;;;3.20;2.42;;;15.80;99.90;;;;;;5041131;28;20040;-68
2023/07/31 03:09:34;;;;;;;3.63;2.25;;;15.80;99.90;;;;;;5045167;28;20033;-68
2023/07/31 03:12:00;;;;;;;3.10;2.15;;;15.80;99.90;;;;;;5033393;28;20033;-68
2023/07/31 03:14:28;;;;;;;4.20;2.30;;;15.80;99.90;;;;;;5041372;28;20506;-67
2023/07/31 03:16:54;;;;;;;3.45;2.40;;;15.80;99.90;;;;;;5042172;28;20491;-68
2023/07/31 03:19:20;;;;;;;3.63;2.35;;;15.80;99.90;;;;;;5041295;28;20514;-67
2023/07/31 03:21:45;;;;;;;2.60;1.98;;;15.80;99.90;;;;;;5037400;28;20574;-68
2023/07/31 03:24:12;;;;;;;2.78;1.95;;;15.80;99.90;;;;;;5044911;28;20037;-68
2023/07/31 03:26:41;;;;;;;3.97;2.40;;;15.80;99.90;;;;;;5046144;28;20048;-68
2023/07/31 03:29:07;;;;;;;4.43;2.25;;;15.80;99.90;;;;;;5042214;28;20527;-68
2023/07/31 03:31:32;;;;;;;2.50;1.90;;;15.90;99.90;;;;;;5044174;28;20124;-66
2023/07/31 03:33:58;;;;;;;3.58;2.10;;;15.90;99.90;;;;;;5044144;28;20053;-68
2023/07/31 03:36:23;;;;;;;2.83;1.98;;;15.90;99.90;;;;;;5043868;28;20119;-67
2023/07/31 03:38:49;;;;;;;3.03;1.95;;;15.80;99.90;;;;;;5041322;28;20451;-68
2023/07/31 03:41:15;;;;;;;2.78;1.90;;;15.90;99.90;;;;;;5045180;28;20039;-68
2023/07/31 03:43:40;;;;;;;4.32;2.08;;;15.90;99.90;;;;;;5038099;28;20048;-68
2023/07/31 03:46:06;;;;;;;2.53;1.70;;;15.80;99.90;;;;;;5043176;28;20072;-68
2023/07/31 03:48:31;;;;;;;2.85;1.80;;;15.90;99.90;;;;;;5044599;28;20135;-68
2023/07/31 03:50:57;;;;;;;2.10;1.70;;;15.90;99.90;;;;;;5046241;28;20040;-68
2023/07/31 03:53:23;;;;;;;4.55;1.70;;;15.90;99.90;;;;;;5042290;28;20036;-68
2023/07/31 03:55:48;;;;;;;2.22;1.48;;;15.90;99.90;;;;;;5047136;28;20071;-68
2023/07/31 03:58:14;;;;;;;2.30;1.67;;;15.90;99.90;;;;;;5043551;28;20037;-68
2023/07/31 04:00:40;;;;;;;4.45;1.80;;;16.00;99.90;;;;;;5045505;28;20044;-68
2023/07/31 04:03:06;;;;;;;6.35;1.75;;;16.00;99.90;;;;;;5046831;28;20033;-67
2023/07/31 04:05:32;;;;;;;2.85;1.73;;;16.00;99.90;;;;;;5046153;28;20067;-68
2023/07/31 04:07:58;;;;;;;4.25;1.42;;;16.00;99.90;;;;;;5044598;28;20147;-68
2023/07/31 04:10:24;;;;;;;2.97;1.27;;;16.00;99.90;;;;;;5038341;28;20060;-68
2023/07/31 04:12:50;;;;;;;3.58;1.40;;;16.10;99.90;;;;;;5045674;28;20033;-68
2023/07/31 04:15:15;;;;;;;3.45;1.65;;;16.10;99.90;;;;;;5045402;28;20491;-67
2023/07/31 04:17:41;;;;;;;3.25;1.80;;;16.10;99.90;;;;;;5039120;28;20033;-67
2023/07/31 04:20:07;;;;;;;3.03;1.60;;;16.10;99.90;;;;;;5044540;28;20044;-67
2023/07/31 04:22:33;;;;;;;3.75;1.75;;;16.10;99.90;;;;;;5044866;28;20041;-67
2023/07/31 04:24:58;;;;;;;3.28;1.75;;;16.10;99.90;;;;;;5045010;28;20052;-67
2023/07/31 04:27:24;;;;;;;3.03;1.75;;;16.20;99.90;;;;;;5047959;28;20151;-67
2023/07/31 04:29:50;;;;;;;3.58;1.90;;;16.10;99.90;;;;;;5048497;28;20028;-67
2023/07/31 04:32:16;;;;;;;4.47;2.00;;;16.20;99.90;;;;;;5044684;28;20607;-67
2023/07/31 04:34:42;;;;;;;6.93;2.55;;;16.20;99.90;;;;;;5037621;28;20037;-67
2023/07/31 04:37:08;;;;;;;9.10;3.30;;;16.20;99.90;;;;;;5035979;28;20044;-67
2023/07/31 04:39:33;;;;;;;11.57;3.88;;;16.20;99.90;;;;;;5043757;28;20045;-67
2023/07/31 04:41:59;;;;;;;11.82;4.55;;;16.20;99.90;;;;;;5045288;28;20068;-68
2023/07/31 04:44:25;;;;;;;14.70;5.07;;;16.20;99.90;;;;;;5039466;28;20497;-68
2023/07/31 04:46:50;;;;;;;13.88;5.22;;;16.30;99.90;;;;;;5035488;28;20464;-67
2023/07/31 04:49:16;;;;;;;17.02;6.07;;;16.30;99.90;;;;;;5042167;28;20503;-67
2023/07/31 04:51:41;;;;;;;13.15;5.80;;;16.30;99.90;;;;;;5040128;28;20033;-68
2023/07/31 04:54:07;;;;;;;22.67;7.00;;;16.40;99.90;;;;;;5042429;28;20032;-68
2023/07/31 04:56:33;;;;;;;17.35;6.72;;;16.50;99.90;;;;;;5042655;28;20475;-68
2023/07/31 04:58:58;;;;;;;19.08;6.45;;;16.50;99.90;;;;;;5043153;28;20036;-67
2023/07/31 05:01:24;;;;;;;17.02;6.32;;;16.50;99.90;;;;;;5042468;28;20033;-66
2023/07/31 05:03:49;;;;;;;18.85;6.72;;;16.50;99.90;;;;;;5044384;28;20128;-66
2023/07/31 05:06:15;;;;;;;21.45;6.82;;;16.50;99.90;;;;;;5036935;28;20367;-70
2023/07/31 05:08:41;;;;;;;25.70;7.07;;;16.60;99.90;;;;;;5039176;28;20040;-69
2023/07/31 05:11:06;;;;;;;19.75;6.72;;;16.60;99.90;;;;;;5044057;28;20386;-66
2023/07/31 05:13:32;;;;;;;23.48;7.32;;;16.60;99.90;;;;;;5043180;28;20380;-66
2023/07/31 05:15:57;;;;;;;19.73;6.50;;;16.60;99.90;;;;;;5042991;28;20041;-66
2023/07/31 05:18:23;;;;;;;31.13;7.45;;;16.60;99.90;;;;;;5040305;28;20132;-66
2023/07/31 05:20:49;;;;;;;24.17;6.80;;;16.60;99.90;;;;;;5043822;28;20036;-67
2023/07/31 05:23:14;;;;;;;25.83;7.63;;;16.60;99.90;;;;;;5042831;28;20049;-70
2023/07/31 05:25:40;;;;;;;25.17;8.02;;;16.70;99.90;;;;;;5040786;28;20612;-70
2023/07/31 05:28:05;;;;;;;23.50;7.80;;;16.70;99.90;;;;;;5042785;28;20554;-68
2023/07/31 05:30:31;;;;;;;24.85;7.70;;;16.70;99.90;;;;;;5042912;28;20044;-70
2023/07/31 05:32:57;;;;;;;27.02;8.25;;;16.80;99.90;;;;;;5043338;28;20442;-70
2023/07/31 05:35:22;;;;;;;24.70;8.80;;;16.70;99.90;;;;;;5036895;28;20509;-67
2023/07/31 05:37:48;;;;;;;29.10;8.18;;;16.80;99.90;;;;;;5041407;28;20041;-70
2023/07/31 05:40:14;;;;;;;28.77;8.10;;;16.80;99.90;;;;;;5044202;28;20040;-67
2023/07/31 05:42:40;;;;;;;32.30;8.18;;;16.80;99.90;;;;;;5036162;28;20075;-66
2023/07/31 05:45:09;;;;;;;27.45;8.07;;;16.80;99.90;;;;;;5043392;28;20033;-66
2023/07/31 05:47:35;;;;;;;23.92;8.40;;;16.80;99.90;;;;;;5038128;28;20164;-67
2023/07/31 05:50:01;;;;;;;27.80;9.18;;;16.80;99.90;;;;;;5043247;28;20540;-70
2023/07/31 05:52:28;;;;;;;24.80;8.10;;;16.80;99.90;;;;;;5043941;28;20071;-68
2023/07/31 05:54:54;;;;;;;25.48;9.13;;;16.80;99.90;;;;;;5040267;28;20036;-70
2023/07/31 05:57:20;;;;;;;24.67;9.75;;;16.90;99.90;;;;;;5041699;28;20041;-66
2023/07/31 05:59:45;;;;;;;28.52;10.40;;;16.80;99.90;;;;;;5040371;28;20072;-68
2023/07/31 06:02:11;;;;;;;25.92;9.52;;;16.80;99.90;;;;;;5042976;28;20047;-67
2023/07/31 06:04:37;;;;;;;23.38;9.65;;;16.80;99.90;;;;;;5041678;28;20048;-68
2023/07/31 06:07:03;;;;;;;25.88;9.95;;;16.80;99.90;;;;;;5041185;28;20055;-68
2023/07/31 06:09:29;;;;;;;23.42;9.13;;;16.80;99.90;;;;;;5042965;28;20037;-69
2023/07/31 06:11:54;;;;;;;27.50;10.63;;;16.80;99.90;;;;;;5035453;28;20037;-69
2023/07/31 06:14:20;;;;;;;27.58;10.73;;;16.80;99.90;;;;;;5041815;28;20503;-69
2023/07/31 06:16:46;;;;;;;25.98;10.18;;;16.90;99.90;;;;;;5035542;28;20526;-68
2023/07/31 06:19:11;;;;;;;25.35;9.40;;;16.80;99.90;;;;;;5039563;28;20040;-68
2023/07/31 06:21:38;;;;;;;23.48;9.68;;;16.90;99.90;;;;;;5043926;28;20037;-68
2023/07/31 06:24:05;;;;;;;20.13;10.38;;;16.90;99.90;;;;;;5042917;28;20534;-69
2023/07/31 06:26:31;;;;;;;25.90;9.38;;;16.90;99.90;;;;;;5039974;28;20083;-69
2023/07/31 06:28:56;;;;;;;24.52;10.70;;;16.90;99.90;;;;;;5042537;28;20080;-68
2023/07/31 06:31:22;;;;;;;32.17;10.65;;;16.90;99.90;;;;;;5040815;28;20063;-68
2023/07/31 06:33:51;;;;;;;27.95;10.30;;;16.90;99.90;;;;;;5046219;28;20399;-68
2023/07/31 06:36:17;;;;;;;23.63;9.43;;;17.00;99.90;;;;;;5042689;28;20037;-68
2023/07/31 06:38:42;;;;;;;26.35;9.27;;;17.00;99.90;;;;;;5042057;28;20064;-68
2023/07/31 06:41:09;;;;;;;22.70;8.77;;;17.00;99.90;;;;;;5040708;28;20033;-68
2023/07/31 06:43:34;;;;;;;25.60;9.27;;;16.90;99.90;;;;;;5042120;28;20041;-68
2023/07/31 06:46:07;;;;;;;22.08;9.18;;;16.90;99.90;;;;;;5044883;28;20037;-68
2023/07/31 06:48:33;;;;;;;22.77;7.90;;;16.80;99.90;;;;;;5041608;28;20513;-69
2023/07/31 06:51:00;;;;;;;19.17;8.75;;;16.80;99.90;;;;;;5042525;28;20025;-71
2023/07/31 06:53:26;;;;;;;24.50;8.93;;;16.70;99.90;;;;;;5042995;28;20045;-67
2023/07/31 06:55:51;;;;;;;20.40;8.65;;;16.70;99.90;;;;;;5043954;28;20041;-66
2023/07/31 06:58:17;;;;;;;18.70;7.30;;;16.80;99.90;;;;;;5011878;28;20095;-67
2023/07/31 07:00:43;;;;;;;18.27;8.02;;;16.80;99.90;;;;;;5045106;28;20045;-67
2023/07/31 07:03:08;;;;;;;19.00;8.70;;;16.80;99.90;;;;;;5046228;28;20087;-67
2023/07/31 07:05:34;;;;;;;21.33;8.25;;;16.70;99.90;;;;;;5042915;28;20071;-67
2023/07/31 07:08:00;;;;;;;17.30;7.50;;;16.60;99.90;;;;;;5044679;28;20049;-67
2023/07/31 07:10:25;;;;;;;15.63;6.43;;;16.60;99.90;;;;;;5044088;28;20066;-68
2023/07/31 07:12:51;;;;;;;18.67;7.57;;;16.60;99.90;;;;;;5043624;28;20047;-68
2023/07/31 07:15:17;;;;;;;18.38;6.72;;;16.70;99.90;;;;;;5046544;28;20045;-68
2023/07/31 07:17:42;;;;;;;17.02;6.90;;;16.70;99.90;;;;;;5045626;28;20040;-68
2023/07/31 07:20:08;;;;;;;11.85;6.03;;;16.70;99.90;;;;;;5047270;28;20490;-67
2023/07/31 07:22:34;;;;;;;14.45;5.65;;;16.80;99.90;;;;;;5039292;28;20084;-67
2023/07/31 07:25:00;;;;;;;18.92;5.38;;;16.80;99.90;;;;;;5046541;28;20115;-67
2023/07/31 07:27:26;;;;;;;15.02;5.82;;;16.90;99.90;;;;;;5038426;28;20052;-67
2023/07/31 07:29:54;;;;;;;13.65;5.57;;;17.00;99.90;;;;;;5049613;28;20298;-68
2023/07/31 07:32:20;;;;;;;13.13;5.18;;;17.10;99.90;;;;;;5041760;28;20036;-68
2023/07/31 07:34:47;;;;;;;14.25;5.85;;;17.10;99.90;;;;;;5046736;28;20944;-67
2023/07/31 07:37:13;;;;;;;13.35;5.53;;;17.00;99.90;;;;;;5045934;28;20033;-68
2023/07/31 07:39:39;;;;;;;10.45;5.97;;;16.90;99.90;;;;;;5045643;28;20037;-67
2023/07/31 07:42:04;;;;;;;11.82;6.18;;;17.00;99.90;;;;;;5046369;28;20037;-67
2023/07/31 07:44:30;;;;;;;13.48;5.63;;;16.90;99.90;;;;;;5046533;28;20037;-67
2023/07/31 07:46:55;;;;;;;10.30;5.55;;;16.90;99.90;;;;;;5043144;28;20123;-68
2023/07/31 07:49:22;;;;;;;13.18;5.85;;;17.00;99.90;;;;;;5044697;28;20076;-68
2023/07/31 07:51:48;;;;;;;11.85;5.78;;;17.10;99.90;;;;;;5044167;28;20044;-68
2023/07/31 07:54:14;;;;;;;10.90;5.82;;;17.00;99.90;;;;;;5046054;28;20052;-68
2023/07/31 07:56:40;;;;;;;10.27;5.25;;;17.00;99.90;;;;;;5042223;28;20040;-69
2023/07/31 07:59:05;;;;;;;12.68;6.18;;;17.00;99.90;;;;;;5044412;28;20033;-69
2023/07/31 08:01:31;;;;;;;11.80;5.82;;;17.00;99.90;;;;;;5045116;28;20506;-68
2023/07/31 08:03:58;;;;;;;9.82;4.85;;;17.10;99.90;;;;;;5050746;28;20033;-67
2023/07/31 08:06:24;;;;;;;8.07;5.07;;;17.10;99.90;;;;;;5044635;28;20710;-68
2023/07/31 08:08:49;;;;;;;10.88;5.45;;;17.10;99.90;;;;;;5044850;28;20544;-69
2023/07/31 08:11:15;;;;;;;10.45;5.45;;;17.10;99.90;;;;;;5037970;28;21526;-68
2023/07/31 08:13:41;;;;;;;10.02;4.95;;;17.10;99.90;;;;;;5036521;28;20044;-68
2023/07/31 08:16:06;;;;;;;7.82;5.13;;;17.10;99.90;;;;;;5042861;28;20231;-68
2023/07/31 08:18:32;;;;;;;8.13;4.35;;;17.10;99.90;;;;;;5042616;28;20657;-68
2023/07/31 08:20:58;;;;;;;10.80;4.88;;;17.20;99.90;;;;;;5044436;28;20053;-68
2023/07/31 08:23:24;;;;;;;8.73;4.72;;;17.30;99.90;;;;;;5038541;28;20142;-68
2023/07/31 08:25:50;;;;;;;8.40;4.30;;;17.30;99.90;;;;;;5043858;28;20037;-68
2023/07/31 08:28:16;;;;;;;6.20;4.03;;;17.40;99.90;;;;;;5041502;28;20048;-68
2023/07/31 08:30:42;;;;;;;6.57;3.80;;;17.50;99.90;;;;;;5057159;28;20055;-67
2023/07/31 08:33:08;;;;;;;5.43;3.30;;;17.50;99.90;;;;;;5043763;28;20038;-68
2023/07/31 08:35:33;;;;;;;5.60;3.53;;;17.50;99.90;;;;;;5043881;28;20519;-68
2023/07/31 08:37:59;;;;;;;6.82;3.90;;;17.60;99.90;;;;;;5041277;28;20483;-68
2023/07/31 08:40:25;;;;;;;6.25;3.30;;;17.70;99.90;;;;;;5043310;28;20071;-68
2023/07/31 08:42:53;;;;;;;6.75;3.67;;;17.80;99.90;;;;;;5038478;28;20514;-68
2023/07/31 08:45:20;;;;;;;5.97;3.45;;;17.90;99.90;;;;;;5041957;28;20124;-68
2023/07/31 08:47:48;;;;;;;6.25;3.00;;;17.90;99.90;;;;;;5042348;28;20482;-68
2023/07/31 08:50:16;;;;;;;6.85;3.50;;;17.90;99.90;;;;;;5044022;28;20102;-68
2023/07/31 08:52:41;;;;;;;5.65;3.50;;;18.00;99.90;;;;;;5044095;28;20049;-68
2023/07/31 08:55:07;;;;;;;5.60;3.35;;;18.10;99.90;;;;;;5041124;28;20056;-68
2023/07/31 08:57:37;;;;;;;4.68;3.30;;;18.30;99.90;;;;;;5043089;28;20045;-68
2023/07/31 09:00:05;;;;;;;7.50;2.97;;;18.30;99.90;;;;;;5047554;28;20028;-68
2023/07/31 09:02:55;;;;;;;6.30;3.00;;;18.30;99.90;;;;;;5048387;28;20102;-68
2023/07/31 09:05:22;;;;;;;5.97;3.00;;;18.20;99.90;;;;;;5049981;28;20491;-68
2023/07/31 09:07:49;;;;;;;4.88;3.00;;;18.20;99.90;;;;;;5044539;28;20060;-68
2023/07/31 09:10:15;;;;;;;4.10;2.90;;;18.20;99.90;;;;;;5041680;28;20096;-68
2023/07/31 09:12:42;;;;;;;4.47;2.55;;;18.20;99.90;;;;;;5048965;28;20041;-69
2023/07/31 09:15:08;;;;;;;4.28;2.80;;;18.20;99.90;;;;;;5051086;28;20032;-69
2023/07/31 09:17:36;;;;;;;4.03;2.58;;;18.10;99.90;;;;;;5045444;28;20072;-68
2023/07/31 09:20:19;;;;;;;3.50;2.40;;;18.10;99.90;;;;;;5042054;28;20044;-68
2023/07/31 09:22:46;;;;;;;3.47;2.20;;;18.20;99.90;;;;;;5042859;28;20086;-69
2023/07/31 09:25:22;;;;;;;3.05;2.22;;;18.20;99.90;;;;;;5042187;28;20041;-68
2023/07/31 09:27:58;;;;;;;4.07;2.20;;;18.20;99.90;;;;;;5036749;28;20072;-68
2023/07/31 09:30:24;;;;;;;4.38;2.13;;;18.20;99.90;;;;;;5039913;28;20048;-69
2023/07/31 09:32:51;;;;;;;2.70;1.50;;;18.10;99.90;;;;;;5043086;28;20481;-68
2023/07/31 09:35:43;;;;;;;2.92;2.00;;;18.10;99.90;;;;;;5046398;28;20041;-69
2023/07/31 09:38:13;;;;;;;3.03;1.73;;;18.20;99.90;;;;;;5036833;28;20502;-68
2023/07/31 09:40:41;;;;;;;2.60;2.00;;;18.20;99.90;;;;;;5042634;28;20097;-68
2023/07/31 09:43:10;;;;;;;2.65;2.00;;;18.30;99.90;;;;;;5040416;28;20536;-69
2023/07/31 09:45:38;;;;;;;2.47;1.67;;;18.30;99.90;;;;;;5041409;28;20447;-66
2023/07/31 09:48:08;;;;;;;2.42;1.60;;;18.30;99.90;;;;;;5043033;28;20399;-67
2023/07/31 09:50:37;;;;;;;2.60;1.73;;;18.30;99.90;;;;;;5044980;28;20049;-68
2023/07/31 09:53:03;;;;;;;2.53;1.80;;;18.30;99.90;;;;;;5039462;28;20041;-72
2023/07/31 09:55:31;;;;;;;2.78;2.03;;;18.40;99.90;;;;;;5039980;28;20053;-67
2023/07/31 09:57:58;;;;;;;2.72;1.75;;;18.40;99.90;;;;;;5038422;28;20045;-67
2023/07/31 10:00:26;;;;;;;2.88;2.00;;;18.50;99.90;;;;;;5041082;28;20052;-69
2023/07/31 10:02:53;;;;;;;2.20;1.90;;;18.50;99.90;;;;;;5043508;28;20099;-66
2023/07/31 10:05:20;;;;;;;2.85;2.20;;;18.60;99.90;;;;;;5047596;28;20484;-67
2023/07/31 10:07:53;;;;;;;2.92;2.40;;;18.70;99.90;;;;;;5033167;28;20041;-67
2023/07/31 10:10:21;;;;;;;4.95;2.60;;;18.80;99.90;;;;;;5039407;28;20411;-67
2023/07/31 10:12:49;;;;;;;3.47;2.20;;;18.80;99.90;;;;;;5041031;28;20045;-66
2023/07/31 10:15:16;;;;;;;2.67;2.28;;;18.90;99.90;;;;;;5042764;28;20041;-68
2023/07/31 10:17:42;;;;;;;3.63;2.40;;;19.00;99.90;;;;;;5039347;28;20047;-71
2023/07/31 10:20:08;;;;;;;3.45;2.50;;;19.00;99.90;;;;;;5041946;28;20032;-68
2023/07/31 10:22:35;;;;;;;3.33;2.75;;;19.00;99.90;;;;;;5047031;28;20045;-68
2023/07/31 10:25:01;;;;;;;5.38;2.53;;;19.10;99.90;;;;;;5047001;28;20040;-68
2023/07/31 10:27:27;;;;;;;4.13;2.80;;;19.20;99.90;;;;;;5041253;28;20087;-69
2023/07/31 10:29:56;;;;;;;3.63;2.67;;;19.20;99.90;;;;;;5042635;28;20033;-68
2023/07/31 10:32:23;;;;;;;3.20;2.40;;;19.20;99.90;;;;;;5035281;28;20501;-67
2023/07/31 10:34:51;;;;;;;3.35;2.70;;;19.20;99.90;;;;;;5042113;28;20041;-64
2023/07/31 10:37:28;;;;;;;3.67;2.40;;;19.20;99.90;;;;;;5041190;28;20118;-69
2023/07/31 10:40:04;;;;;;;3.17;2.20;;;19.20;99.90;;;;;;5041361;28;20049;-68
2023/07/31 10:42:31;;;;;;;3.20;2.50;;;19.30;99.90;;;;;;5039921;28;20152;-66
2023/07/31 10:44:59;;;;;;;3.55;2.40;;;19.60;99.90;;;;;;5042468;28;20064;-66
2023/07/31 10:47:25;;;;;;;2.78;2.13;;;19.80;99.90;;;;;;5040894;28;20132;-66
2023/07/31 10:49:50;;;;;;;4.13;2.38;;;19.80;99.90;;;;;;5042879;28;20567;-67
2023/07/31 10:52:23;;;;;;;3.20;2.75;;;19.80;99.90;;;;;;5039337;28;20041;-71
2023/07/31 10:54:50;;;;;;;3.17;2.40;;;19.90;99.90;;;;;;5043736;28;20029;-66
2023/07/31 10:57:20;;;;;;;3.28;2.50;;;19.80;99.90;;;;;;5038771;28;20136;-69
2023/07/31 10:59:46;;;;;;;3.30;2.70;;;19.70;99.90;;;;;;5039599;28;20099;-66
2023/07/31 11:02:26;;;;;;;4.07;3.10;;;19.70;99.90;;;;;;5041978;28;20041;-71
2023/07/31 11:05:06;;;;;;;5.78;2.85;;;19.70;99.90;;;;;;5022757;28;20102;-69
2023/07/31 11:07:50;;;;;;;3.47;2.88;;;19.80;99.90;;;;;;5036469;28;20483;-69
2023/07/31 11:10:18;;;;;;;3.88;3.00;;;19.70;99.90;;;;;;5042121;28;20387;-66
2023/07/31 11:12:46;;;;;;;3.67;3.20;;;19.70;99.90;;;;;;5043161;28;20482;-68
2023/07/31 11:15:12;;;;;;;3.63;3.13;;;19.70;99.90;;;;;;5042946;28;20032;-67
2023/07/31 11:17:40;;;;;;;5.38;2.75;;;19.70;99.90;;;;;;5041307;28;20098;-68
2023/07/31 11:20:07;;;;;;;4.38;3.08;;;19.80;99.90;;;;;;5041840;28;20040;-67
2023/07/31 11:22:34;;;;;;;2.75;2.42;;;19.90;99.90;;;;;;5046086;28;20492;-67
2023/07/31 11:25:02;;;;;;;3.47;2.47;;;19.80;99.90;;;;;;5041931;28;20041;-67
2023/07/31 11:27:28;;;;;;;2.78;2.47;;;19.80;99.90;;;;;;5040138;28;20048;-68
2023/07/31 11:30:01;;;;;;;2.78;2.22;;;19.90;99.90;;;;;;5042245;28;20091;-67
2023/07/31 11:32:27;;;;;;;3.15;2.35;;;19.90;99.90;;;;;;5036951;28;20092;-68
2023/07/31 11:34:55;;;;;;;3.28;2.10;;;19.80;99.90;;;;;;5041721;28;20571;-69
2023/07/31 11:37:22;;;;;;;3.22;2.53;;;19.70;99.90;;;;;;5039881;28;20076;-69
2023/07/31 11:40:00;;;;;;;3.38;2.85;;;19.70;99.90;;;;;;5042002;28;20417;-68
2023/07/31 11:42:26;;;;;;;2.90;2.55;;;19.60;99.90;;;;;;5039453;28;20045;-68
2023/07/31 11:44:52;;;;;;;2.85;2.40;;;19.50;99.90;;;;;;5042654;28;20037;-68
2023/07/31 11:47:17;;;;;;;4.10;2.70;;;19.50;99.90;;;;;;5043718;28;20582;-68
2023/07/31 11:49:44;;;;;;;2.80;2.30;;;19.50;99.90;;;;;;5041800;28;20041;-68
2023/07/31 11:52:10;;;;;;;3.38;2.60;;;19.40;99.90;;;;;;5044019;28;20447;-68
2023/07/31 11:54:36;;;;;;;3.30;2.83;;;19.30;99.90;;;;;;5045179;28;20056;-68
2023/07/31 11:57:03;;;;;;;3.78;2.70;;;19.20;99.90;;;;;;5042749;28;20039;-67
2023/07/31 11:59:29;;;;;;;3.92;2.67;;;19.20;99.90;;;;;;5044057;28;20037;-68
2023/07/31 12:01:54;;;;;;;3.88;2.50;;;19.20;99.90;;;;;;5048214;28;20406;-67
2023/07/31 12:04:21;;;;;;;2.60;2.38;;;19.20;99.90;;;;;;5045979;28;20043;-70
2023/07/31 12:06:47;;;;;;;3.45;2.35;;;19.40;99.90;;;;;;5049427;28;20088;-66
2023/07/31 12:09:15;;;;;;;2.40;1.98;;;19.50;99.90;;;;;;5044115;28;20112;-66
2023/07/31 12:11:47;;;;;;;1.90;1.70;;;19.60;99.90;;;;;;5045088;28;20051;-70
2023/07/31 12:14:28;;;;;;;2.67;1.83;;;19.60;99.90;;;;;;5037897;28;20159;-70
2023/07/31 12:17:03;;;;;;;;;;;19.70;99.90;;;;;;5043712;28;20045;-67
2023/07/31 12:19:29;;;;;;;3.58;2.65;;;19.80;99.90;;;;;;5044495;28;19917;-67
2023/07/31 12:21:59;;;;;;;3.60;3.20;;;19.80;99.90;;;;;;5041752;28;20554;-67
2023/07/31 12:24:28;;;;;;;3.75;2.95;;;19.60;99.90;;;;;;5049380;28;20051;-67
2023/07/31 12:26:55;;;;;;;4.93;3.40;;;19.50;99.90;;;;;;5042894;28;20132;-67
2023/07/31 12:29:20;;;;;;;6.00;3.80;;;19.40;99.90;;;;;;5047217;28;20033;-67
2023/07/31 12:31:46;;;;;;;5.75;4.22;;;19.40;99.90;;;;;;5052144;28;20037;-67
2023/07/31 12:34:22;;;;;;;6.28;4.10;;;19.30;99.90;;;;;;5046730;28;20486;-67
2023/07/31 12:36:49;;;;;;;7.75;4.53;;;19.20;99.90;;;;;;5052177;28;20039;-67
2023/07/31 12:39:15;;;;;;;5.45;4.00;;;19.10;99.90;;;;;;5040999;28;20068;-67
2023/07/31 12:41:40;;;;;;;4.22;2.80;;;19.00;99.90;;;;;;5044024;28;20075;-67